Time;durP1;ratioP1;P1;durP2;ratioP2;P2;SDS_P1;SDS_P2;PMS_P1;PMS_P2;Temp;Humidity;BMP_temperature;BMP_pressure;BME280_temperature;BME280_humidity;BME280_pressure;Samples;Min_cycle;Max_cycle;Signal;HPM_P1;HPM_P2
2022/04/15 00:03:01;;;;;;;21.80;13.33;;;;;;;9.10;100.00;97019.91;10411609;28;20284;-60
2022/04/15 00:08:06;;;;;;;21.83;11.80;;;;;;;9.24;100.00;97023.84;10411127;28;20756;-55
2022/04/15 00:13:11;;;;;;;15.80;10.27;;;;;;;9.39;100.00;97021.63;10411977;28;20200;-60
2022/04/15 00:18:12;;;;;;;18.57;11.13;;;;;;;9.21;100.00;97011.88;10410979;28;20243;-59
2022/04/15 00:23:13;;;;;;;22.27;12.90;;;;;;;9.13;100.00;97016.16;10411217;28;20279;-60
2022/04/15 00:28:13;;;;;;;23.30;12.83;;;;;;;9.04;100.00;97012.59;10411014;28;20216;-59
2022/04/15 00:33:14;;;;;;;23.53;13.63;;;;;;;9.13;100.00;97009.16;10410438;28;20200;-60
2022/04/15 00:38:16;;;;;;;23.50;12.43;;;;;;;9.21;100.00;97014.50;10410123;28;20223;-60
2022/04/15 00:43:16;;;;;;;18.23;11.87;;;;;;;9.22;100.00;97008.31;10410011;28;20202;-58
2022/04/15 00:48:16;;;;;;;19.73;12.20;;;;;;;9.19;100.00;97011.22;10409759;28;20202;-60
2022/04/15 00:53:23;;;;;;;20.80;11.97;;;;;;;9.20;100.00;97002.38;10409536;28;20196;-58
2022/04/15 00:58:24;;;;;;;18.23;11.53;;;;;;;9.14;100.00;97002.13;10407771;28;20233;-59
2022/04/15 01:03:25;;;;;;;21.90;11.70;;;;;;;9.17;100.00;97013.13;10408324;28;20185;-59
2022/04/15 01:08:29;;;;;;;22.90;12.77;;;;;;;9.10;100.00;97012.88;10408519;28;20704;-56
2022/04/15 01:13:32;;;;;;;18.30;11.33;;;;;;;9.20;100.00;97007.59;10408735;28;20257;-60
2022/04/15 01:18:32;;;;;;;21.47;12.57;;;;;;;9.26;100.00;97012.31;10408493;28;20332;-60
2022/04/15 01:23:33;;;;;;;18.83;12.50;;;;;;;9.24;100.00;97008.16;10408600;28;20342;-59
2022/04/15 01:28:33;;;;;;;29.30;16.00;;;;;;;9.31;100.00;97017.09;10408111;28;20212;-59
2022/04/15 01:33:33;;;;;;;26.53;15.43;;;;;;;9.45;100.00;97013.22;10408368;28;20200;-60
2022/04/15 01:38:34;;;;;;;32.30;17.77;;;;;;;9.46;100.00;97007.84;10407867;28;20228;-59
2022/04/15 01:43:35;;;;;;;28.70;17.20;;;;;;;9.53;100.00;97005.47;10407138;28;20197;-57
2022/04/15 01:48:35;;;;;;;29.00;17.60;;;;;;;9.56;100.00;97012.22;10406601;28;20208;-59
2022/04/15 01:53:35;;;;;;;30.30;18.07;;;;;;;9.54;100.00;97006.28;10407506;28;20185;-57
2022/04/15 01:58:36;;;;;;;31.50;17.77;;;;;;;9.72;100.00;97007.19;10407211;28;20290;-55
2022/04/15 02:03:36;;;;;;;39.83;22.10;;;;;;;9.45;100.00;97006.19;10407062;28;20267;-57
2022/04/15 02:08:37;;;;;;;39.07;22.30;;;;;;;9.50;100.00;97010.19;10406664;28;20238;-57
2022/04/15 02:13:37;;;;;;;40.43;22.93;;;;;;;9.50;100.00;97003.16;10435880;22;20252;-59
2022/04/15 02:18:37;;;;;;;37.27;20.90;;;;;;;9.53;100.00;96997.63;10409976;28;20275;-57
2022/04/15 02:23:37;;;;;;;42.03;23.40;;;;;;;9.44;100.00;97003.72;10406266;28;20216;-56
2022/04/15 02:28:38;;;;;;;43.53;23.57;;;;;;;9.39;100.00;96998.09;10408832;28;20185;-57
2022/04/15 02:33:38;;;;;;;44.10;24.93;;;;;;;9.38;100.00;96999.88;10409698;28;20216;-58
2022/04/15 02:38:39;;;;;;;49.40;27.07;;;;;;;9.21;100.00;96995.38;10409336;28;20247;-58
2022/04/15 02:43:39;;;;;;;52.90;27.37;;;;;;;9.18;100.00;97003.50;10409571;28;20205;-58
2022/04/15 02:48:40;;;;;;;52.27;30.73;;;;;;;9.15;100.00;97004.59;10391802;28;20673;-57
2022/04/15 02:53:41;;;;;;;54.77;31.03;;;;;;;9.16;100.00;97013.25;10414576;28;20219;-59
2022/04/15 02:58:41;;;;;;;57.37;32.93;;;;;;;9.10;100.00;97007.63;10416753;28;20230;-58
2022/04/15 03:03:41;;;;;;;54.07;32.40;;;;;;;9.06;100.00;97001.03;10416578;28;20216;-58
2022/04/15 03:08:42;;;;;;;51.47;30.07;;;;;;;9.15;100.00;96995.94;10416377;28;20193;-58
2022/04/15 03:13:42;;;;;;;53.33;30.00;;;;;;;9.16;100.00;97000.19;10416311;28;20240;-59
2022/04/15 03:18:42;;;;;;;47.47;28.83;;;;;;;9.18;100.00;96991.25;10415855;28;20683;-59
2022/04/15 03:23:43;;;;;;;52.90;30.80;;;;;;;9.10;100.00;96997.19;10416018;28;20576;-55
2022/04/15 03:28:44;;;;;;;52.50;31.47;;;;;;;9.01;100.00;96994.59;10415560;28;20299;-59
2022/04/15 03:33:44;;;;;;;53.10;29.77;;;;;;;9.10;100.00;96988.53;10415620;28;20330;-58
2022/04/15 03:38:45;;;;;;;47.13;29.40;;;;;;;9.15;100.00;96996.75;10415205;28;20220;-61
2022/04/15 03:43:45;;;;;;;48.17;29.60;;;;;;;9.09;100.00;97005.97;10414425;28;20686;-59
2022/04/15 03:48:45;;;;;;;47.87;29.10;;;;;;;9.20;100.00;96996.34;10394952;28;20539;-57
2022/04/15 03:53:46;;;;;;;49.13;30.07;;;;;;;9.26;100.00;96999.22;10412849;28;20208;-59
2022/04/15 03:58:46;;;;;;;51.37;29.40;;;;;;;9.38;100.00;97001.66;10413996;28;20655;-56
2022/04/15 04:03:46;;;;;;;51.60;32.70;;;;;;;9.33;100.00;97006.50;10413113;28;20697;-54
2022/04/15 04:08:50;;;;;;;54.33;34.43;;;;;;;9.35;100.00;97005.38;10414319;28;20623;-57
2022/04/15 04:13:50;;;;;;;55.30;34.27;;;;;;;9.45;100.00;97003.56;10414178;28;20310;-58
2022/04/15 04:18:50;;;;;;;59.00;38.47;;;;;;;9.40;100.00;97003.19;10413148;28;20227;-60
2022/04/15 04:23:51;;;;;;;60.43;39.70;;;;;;;9.51;100.00;96996.13;10413552;28;20295;-60
2022/04/15 04:28:51;;;;;;;61.40;38.30;;;;;;;9.58;100.00;96992.78;10413537;28;20185;-60
2022/04/15 04:33:52;;;;;;;66.33;40.30;;;;;;;9.54;100.00;97001.91;10413361;28;20220;-61
2022/04/15 04:38:52;;;;;;;65.13;41.27;;;;;;;9.61;100.00;96994.31;10411552;28;20251;-62
2022/04/15 04:43:53;;;;;;;70.47;43.20;;;;;;;9.64;100.00;97004.47;10409653;28;20394;-60
2022/04/15 04:48:53;;;;;;;68.30;41.03;;;;;;;9.55;100.00;97000.91;10413027;28;20311;-58
2022/04/15 04:53:53;;;;;;;71.67;44.73;;;;;;;9.65;100.00;97003.53;10411504;28;20254;-59
2022/04/15 04:58:54;;;;;;;72.87;44.67;;;;;;;9.70;100.00;97016.97;10413215;28;20261;-56
2022/04/15 05:03:54;;;;;;;68.40;43.70;;;;;;;9.81;100.00;97022.03;10411756;28;20745;-60
2022/04/15 05:08:54;;;;;;;72.53;43.47;;;;;;;9.83;100.00;97027.13;10411996;28;20643;-58
2022/04/15 05:13:55;;;;;;;59.83;38.83;;;;;;;9.51;100.00;97027.50;10411612;28;20785;-59
2022/04/15 05:18:55;;;;;;;57.90;37.23;;;;;;;9.72;100.00;97028.13;10411335;28;20220;-58
2022/04/15 05:23:55;;;;;;;53.20;35.40;;;;;;;9.89;100.00;97041.41;10411322;28;20231;-57
2022/04/15 05:28:56;;;;;;;53.07;33.43;;;;;;;9.98;100.00;97038.78;10410922;28;20205;-57
2022/04/15 05:33:56;;;;;;;43.87;32.90;;;;;;;10.00;100.00;97039.44;10411096;28;20219;-58
2022/04/15 05:38:57;;;;;;;44.83;30.47;;;;;;;10.03;100.00;97046.19;10410642;28;20410;-59
2022/04/15 05:43:58;;;;;;;48.33;32.77;;;;;;;9.76;100.00;97039.13;10410773;28;20580;-58
2022/04/15 05:48:59;;;;;;;53.63;33.53;;;;;;;9.88;100.00;97052.88;10410558;28;20193;-61
2022/04/15 05:53:59;;;;;;;56.80;34.37;;;;;;;9.65;100.00;97053.22;10411100;28;20247;-62
2022/04/15 05:58:59;;;;;;;47.63;34.70;;;;;;;9.57;100.00;97059.16;10410911;28;20691;-62
2022/04/15 06:04:00;;;;;;;54.60;35.67;;;;;;;9.40;100.00;97071.19;10410298;28;20746;-62
2022/04/15 06:09:00;;;;;;;40.43;27.20;;;;;;;9.27;100.00;97076.69;10410719;28;20176;-62
2022/04/15 06:14:03;;;;;;;39.83;25.10;;;;;;;8.80;100.00;97094.00;10409917;28;20225;-62
2022/04/15 06:19:04;;;;;;;39.93;21.93;;;;;;;8.71;100.00;97095.63;10409260;28;20209;-62
2022/04/15 06:24:06;;;;;;;30.10;20.40;;;;;;;8.53;100.00;97122.41;10409653;28;20212;-61
2022/04/15 06:29:07;;;;;;;38.27;22.60;;;;;;;8.50;100.00;97120.06;10416398;28;20193;-60
2022/04/15 06:34:07;;;;;;;35.67;21.93;;;;;;;8.57;100.00;97122.97;10418415;28;20225;-61
2022/04/15 06:39:08;;;;;;;38.10;23.17;;;;;;;8.59;100.00;97118.47;10418089;28;20255;-60
2022/04/15 06:44:08;;;;;;;41.23;23.10;;;;;;;8.31;100.00;97126.00;10417992;28;20244;-60
2022/04/15 06:49:08;;;;;;;39.00;24.57;;;;;;;8.15;100.00;97129.13;10417719;28;20783;-61
2022/04/15 06:54:09;;;;;;;35.57;24.60;;;;;;;8.00;100.00;97140.88;10417062;28;20216;-61
2022/04/15 06:59:09;;;;;;;37.13;23.07;;;;;;;8.12;100.00;97146.84;10413258;28;20220;-59
2022/04/15 07:04:09;;;;;;;32.77;21.23;;;;;;;8.11;100.00;97139.97;10414469;28;20211;-61
2022/04/15 07:09:10;;;;;;;24.00;17.13;;;;;;;8.22;100.00;97139.84;10416077;28;20271;-59
2022/04/15 07:14:10;;;;;;;24.67;16.60;;;;;;;8.02;100.00;97136.34;10414158;28;20239;-56
2022/04/15 07:19:11;;;;;;;24.07;17.03;;;;;;;7.98;100.00;97130.56;10415308;28;20698;-56
2022/04/15 07:24:11;;;;;;;27.87;18.23;;;;;;;7.97;100.00;97128.91;10414531;28;20687;-54
2022/04/15 07:29:12;;;;;;;24.87;18.90;;;;;;;7.99;100.00;97140.03;10409896;28;20727;-57
2022/04/15 07:34:12;;;;;;;24.47;16.37;;;;;;;7.99;100.00;97141.81;10416097;28;20617;-57
2022/04/15 07:39:14;;;;;;;19.70;14.87;;;;;;;8.04;100.00;97143.09;10414312;28;20578;-61
2022/04/15 07:44:15;;;;;;;24.03;17.27;;;;;;;7.91;100.00;97150.28;10415915;28;20220;-58
2022/04/15 07:49:15;;;;;;;23.17;17.70;;;;;;;7.95;100.00;97145.66;10415520;28;20189;-54
2022/04/15 07:54:16;;;;;;;17.80;13.30;;;;;;;8.19;100.00;97148.78;10415311;28;20312;-59
2022/04/15 07:59:16;;;;;;;20.93;12.63;;;;;;;8.31;100.00;97153.91;10414651;28;20242;-58
2022/04/15 08:04:16;;;;;;;16.57;12.27;;;;;;;8.25;100.00;97157.03;10412214;28;20809;-56
2022/04/15 08:09:17;;;;;;;19.17;13.13;;;;;;;7.86;100.00;97174.16;10414895;28;20204;-57
2022/04/15 08:14:17;;;;;;;18.23;13.87;;;;;;;7.60;100.00;97173.69;10435649;23;20336;-60
2022/04/15 08:19:17;;;;;;;23.20;15.60;;;;;;;7.44;100.00;97178.50;10414307;28;20228;-59
2022/04/15 08:24:19;;;;;;;19.53;14.73;;;;;;;7.12;100.00;97190.59;10414123;28;20300;-59
2022/04/15 08:29:19;;;;;;;21.07;14.77;;;;;;;6.84;100.00;97206.75;10413747;28;20188;-57
2022/04/15 08:34:20;;;;;;;18.87;13.50;;;;;;;6.99;100.00;97207.34;10413617;28;20607;-58
2022/04/15 08:39:20;;;;;;;19.13;13.73;;;;;;;6.89;100.00;97213.28;10413987;28;20220;-59
2022/04/15 08:44:22;;;;;;;22.37;13.93;;;;;;;6.89;100.00;97220.25;10412857;28;20223;-59
2022/04/15 08:49:22;;;;;;;18.93;12.67;;;;;;;6.97;100.00;97212.66;10413071;28;20189;-55
2022/04/15 08:54:22;;;;;;;19.13;11.03;;;;;;;7.05;100.00;97219.88;10411779;28;20599;-59
2022/04/15 08:59:23;;;;;;;15.80;10.97;;;;;;;6.69;100.00;97220.06;10412740;28;20227;-57
2022/04/15 09:04:24;;;;;;;15.77;11.03;;;;;;;6.69;100.00;97227.84;10412814;28;20222;-59
2022/04/15 09:09:30;;;;;;;16.13;10.40;;;;;;;6.53;100.00;97241.22;10411984;28;20722;-58
2022/04/15 09:14:31;;;;;;;13.70;10.67;;;;;;;6.57;100.00;97241.78;10411992;28;20244;-54
2022/04/15 09:19:32;;;;;;;18.03;11.27;;;;;;;6.68;100.00;97235.78;10412088;28;20228;-54
2022/04/15 09:24:33;;;;;;;16.10;10.50;;;;;;;6.86;100.00;97242.16;10411800;28;20223;-56
2022/04/15 09:29:35;;;;;;;13.47;9.87;;;;;;;7.05;100.00;97241.53;10411923;28;20250;-59
2022/04/15 09:34:55;;;;;;;15.97;10.10;;;;;;;6.91;100.00;97241.81;10411478;28;20259;-54
2022/04/15 09:40:28;;;;;;;13.37;10.17;;;;;;;6.62;100.00;97244.06;10411512;28;20263;-54
2022/04/15 09:45:34;;;;;;;14.80;10.10;;;;;;;6.82;100.00;97250.34;10410900;28;20297;-58
2022/04/15 09:50:42;;;;;;;16.07;10.70;;;;;;;6.81;100.00;97253.88;10411302;28;20192;-61
2022/04/15 09:55:46;;;;;;;17.67;10.90;;;;;;;6.69;100.00;97258.25;10411052;28;20714;-58
2022/04/15 10:00:49;;;;;;;14.47;9.97;;;;;;;6.79;100.00;97257.41;10410217;28;20212;-55
2022/04/15 10:05:51;;;;;;;15.23;10.97;;;;;;;6.89;100.00;97256.69;10411281;28;20228;-55
2022/04/15 10:10:52;;;;;;;13.80;9.00;;;;;;;6.98;100.00;97253.38;10410522;28;20204;-59
2022/04/15 10:15:54;;;;;;;11.80;8.03;;;;;;;6.90;100.00;97266.19;10410026;28;20318;-59
2022/04/15 10:20:54;;;;;;;11.97;7.93;;;;;;;6.88;100.00;97260.28;10410936;28;20200;-58
2022/04/15 10:25:55;;;;;;;11.63;8.90;;;;;;;6.92;100.00;97259.06;10410191;28;20580;-56
2022/04/15 10:31:11;;;;;;;7.20;5.90;;;;;;;6.91;100.00;97260.03;10410571;28;20203;-60
2022/04/15 10:36:12;;;;;;;10.07;6.13;;;;;;;6.83;100.00;97267.59;10410212;28;20228;-58
2022/04/15 10:41:15;;;;;;;9.77;8.00;;;;;;;6.68;100.00;97262.66;10410257;28;20502;-56
2022/04/15 10:46:16;;;;;;;11.47;8.37;;;;;;;6.51;100.00;97268.28;10410118;28;20208;-59
2022/04/15 10:51:25;;;;;;;10.90;7.70;;;;;;;6.62;100.00;97267.50;10409953;28;20200;-57
2022/04/15 10:56:26;;;;;;;6.73;5.77;;;;;;;6.72;100.00;97271.88;10409811;28;20221;-57
2022/04/15 11:01:26;;;;;;;9.37;6.37;;;;;;;6.65;100.00;97278.50;10409743;28;20575;-55
2022/04/15 11:06:27;;;;;;;5.67;5.10;;;;;;;6.87;100.00;97279.44;10409817;28;20699;-55
2022/04/15 11:11:35;;;;;;;5.37;4.57;;;;;;;6.69;100.00;97290.34;10409504;28;20196;-60
2022/04/15 11:17:01;;;;;;;7.80;5.57;;;;;;;6.76;100.00;97288.91;10416450;28;20719;-57
2022/04/15 11:22:02;;;;;;;5.93;4.97;;;;;;;6.69;100.00;97297.31;10416396;28;20226;-56
2022/04/15 11:27:03;;;;;;;7.67;4.60;;;;;;;6.70;100.00;97294.59;10416303;28;20208;-58
2022/04/15 11:32:05;;;;;;;5.30;4.10;;;;;;;6.50;100.00;97297.91;10416379;28;20266;-56
2022/04/15 11:37:07;;;;;;;4.90;4.40;;;;;;;6.47;100.00;97303.34;10415596;28;20604;-59
2022/04/15 11:42:13;;;;;;;5.17;4.60;;;;;;;6.65;100.00;97308.94;10416177;28;20196;-56
2022/04/15 11:47:16;;;;;;;5.87;4.13;;;;;;;6.65;100.00;97298.50;10415494;28;20189;-58
2022/04/15 11:52:21;;;;;;;4.50;3.83;;;;;;;6.70;100.00;97297.19;10415698;28;20307;-60
2022/04/15 11:57:21;;;;;;;6.10;4.00;;;;;;;6.35;100.00;97294.66;10415445;28;20228;-58
2022/04/15 12:02:24;;;;;;;4.80;4.23;;;;;;;6.82;100.00;97292.81;10415093;28;20195;-59
2022/04/15 12:07:25;;;;;;;5.40;4.07;;;;;;;6.66;100.00;97282.78;10414489;28;20575;-57
2022/04/15 12:12:25;;;;;;;5.57;4.77;;;;;;;7.19;100.00;97291.72;10413960;28;20201;-57
2022/04/15 12:17:26;;;;;;;5.43;4.17;;;;;;;7.22;100.00;97294.09;10414656;28;20217;-60
2022/04/15 12:22:26;;;;;;;4.20;3.80;;;;;;;7.41;100.00;97281.28;10414519;28;20211;-61
2022/04/15 12:27:34;;;;;;;4.80;4.13;;;;;;;7.46;100.00;97284.31;10412529;28;20193;-59
2022/04/15 12:32:35;;;;;;;5.03;4.07;;;;;;;7.43;100.00;97288.97;10413045;28;20204;-57
2022/04/15 12:37:44;;;;;;;5.43;4.43;;;;;;;7.89;100.00;97281.78;10412880;28;20655;-58
2022/04/15 12:42:46;;;;;;;5.70;4.00;;;;;;;8.14;100.00;97284.03;10413566;28;20212;-56
2022/04/15 12:48:09;;;;;;;4.40;4.00;;;;;;;8.26;100.00;97271.75;10431123;28;20600;-58
2022/04/15 12:53:17;;;;;;;3.83;3.53;;;;;;;8.23;100.00;97273.81;10454552;28;20216;-56
2022/04/15 12:58:21;;;;;;;5.47;4.20;;;;;;;7.85;100.00;97271.59;10453815;28;20717;-58
2022/04/15 13:03:34;;;;;;;4.33;3.90;;;;;;;7.91;100.00;97277.28;10454158;28;20216;-57
2022/04/15 13:08:35;;;;;;;5.87;4.30;;;;;;;7.73;100.00;97283.03;10452847;28;20188;-56
2022/04/15 13:13:37;;;;;;;5.50;4.20;;;;;;;7.53;100.00;97289.88;10453235;28;20243;-57
2022/04/15 13:18:38;;;;;;;4.27;3.57;;;;;;;7.67;100.00;97288.75;10453487;28;20235;-55
2022/04/15 13:23:38;;;;;;;5.30;4.10;;;;;;;7.82;100.00;97278.88;10452863;28;20211;-55
2022/04/15 13:28:41;;;;;;;4.67;4.27;;;;;;;7.64;100.00;97283.78;10453257;28;20180;-58
2022/04/15 13:33:41;;;;;;;5.50;4.40;;;;;;;7.75;100.00;97283.75;10452452;28;20239;-57
2022/04/15 13:38:42;;;;;;;5.30;4.80;;;;;;;7.88;100.00;97283.56;10451771;28;20220;-56
2022/04/15 13:43:42;;;;;;;4.30;3.90;;;;;;;8.18;100.00;97287.25;10452492;28;20590;-57
2022/04/15 13:48:43;;;;;;;4.27;3.87;;;;;;;8.35;100.00;97273.59;10452119;28;20192;-57
2022/04/15 13:59:08;;;;;;;5.73;4.53;;;;;;;7.99;100.00;97274.88;10452053;28;20563;-55
2022/04/15 14:04:10;;;;;;;4.87;4.23;;;;;;;7.96;100.00;97288.16;10452825;28;20311;-60
2022/04/15 14:09:12;;;;;;;5.00;4.10;;;;;;;7.97;100.00;97285.44;10451488;28;20181;-60
2022/04/15 14:19:45;;;;;;;4.77;4.03;;;;;;;7.99;100.00;97287.91;10286298;28;20254;-61
2022/04/15 14:24:46;;;;;;;5.00;4.50;;;;;;;8.06;100.00;97298.69;10284752;28;20666;-57
2022/04/15 14:29:47;;;;;;;4.70;4.23;;;;;;;8.17;100.00;97302.06;10284073;28;20582;-59
2022/04/15 14:34:48;;;;;;;4.80;4.40;;;;;;;8.02;100.00;97290.28;10288389;28;20247;-60
2022/04/15 14:39:49;;;;;;;4.53;4.13;;;;;;;7.81;100.00;97304.13;10291308;28;20210;-61
2022/04/15 14:44:49;;;;;;;6.00;5.40;;;;;;;7.49;100.00;97310.16;10305310;28;20214;-57
2022/04/15 14:49:49;;;;;;;7.37;6.57;;;;;;;7.22;100.00;97313.16;10310572;28;20197;-60
2022/04/15 14:54:51;;;;;;;10.07;7.77;;;;;;;7.02;100.00;97319.09;10279428;28;20242;-56
2022/04/15 14:59:51;;;;;;;40.70;26.93;;;;;;;6.95;100.00;97316.97;10280035;28;20365;-59
2022/04/15 15:04:51;;;;;;;13.63;9.63;;;;;;;6.77;100.00;97334.84;10255847;28;20242;-59
2022/04/15 15:09:53;;;;;;;12.97;10.80;;;;;;;6.49;100.00;97336.09;10256051;28;20260;-57
2022/04/15 15:14:53;;;;;;;14.27;10.57;;;;;;;6.66;100.00;97340.06;10273079;28;20242;-57
2022/04/15 15:19:57;;;;;;;12.27;10.57;;;;;;;6.66;100.00;97328.78;10293123;28;20226;-59
2022/04/15 15:30:16;;;;;;;14.83;12.00;;;;;;;6.62;100.00;97337.78;10292783;28;20191;-59
2022/04/15 15:35:16;;;;;;;14.37;10.50;;;;;;;6.72;100.00;97333.53;10294671;28;20207;-59
2022/04/15 15:40:18;;;;;;;13.87;9.37;;;;;;;6.60;100.00;97336.13;10294395;28;20745;-59
2022/04/15 15:45:20;;;;;;;11.83;10.17;;;;;;;6.56;100.00;97341.69;10293869;28;20281;-60
2022/04/15 15:50:20;;;;;;;12.43;10.30;;;;;;;6.59;100.00;97337.06;10294241;28;20190;-62
2022/04/15 15:55:20;;;;;;;12.87;9.97;;;;;;;6.54;100.00;97340.94;10293870;28;20213;-61
2022/04/15 16:00:21;;;;;;;15.57;11.57;;;;;;;6.50;100.00;97342.97;10292631;28;20233;-61
2022/04/15 16:05:21;;;;;;;15.33;12.07;;;;;;;6.52;100.00;97345.44;10293289;28;20261;-62
2022/04/15 16:10:22;;;;;;;12.50;9.93;;;;;;;6.45;100.00;97350.28;10293449;28;20217;-61
2022/04/15 16:15:22;;;;;;;10.40;8.17;;;;;;;6.36;100.00;97354.41;10292283;28;20600;-59
2022/04/15 16:20:22;;;;;;;10.83;7.30;;;;;;;6.32;100.00;97360.78;10292778;28;20313;-59
2022/04/15 16:25:23;;;;;;;9.77;7.93;;;;;;;6.40;100.00;97365.41;10292638;28;20302;-57
2022/04/15 16:30:23;;;;;;;10.00;8.30;;;;;;;6.35;100.00;97360.53;10292423;28;20182;-58
2022/04/15 16:35:24;;;;;;;10.03;8.03;;;;;;;6.27;100.00;97362.91;10292160;28;20338;-59
2022/04/15 16:40:25;;;;;;;9.37;6.73;;;;;;;6.32;100.00;97360.78;10292211;28;20244;-60
2022/04/15 16:45:25;;;;;;;8.33;7.00;;;;;;;6.24;100.00;97365.72;10291775;28;20241;-59
2022/04/15 16:50:25;;;;;;;8.27;6.90;;;;;;;6.19;100.00;97373.88;10289851;28;20226;-60
2022/04/15 17:00:49;;;;;;;8.80;6.60;;;;;;;6.16;100.00;97381.06;10291699;28;20198;-62
2022/04/15 17:05:49;;;;;;;9.10;6.53;;;;;;;6.11;100.00;97380.56;10289335;28;20213;-62
2022/04/15 17:10:50;;;;;;;8.63;6.80;;;;;;;6.05;100.00;97385.28;10290762;28;20684;-61
2022/04/15 17:15:51;;;;;;;11.97;7.23;;;;;;;6.19;100.00;97391.25;10289848;28;20246;-62
2022/04/15 17:20:52;;;;;;;9.13;6.40;;;;;;;6.13;100.00;97394.31;10290474;28;20193;-60
2022/04/15 17:25:53;;;;;;;13.27;7.97;;;;;;;6.00;100.00;97395.19;10290378;28;20536;-61
2022/04/15 17:30:55;;;;;;;10.40;7.83;;;;;;;6.06;100.00;97405.16;10290015;28;20183;-62
2022/04/15 17:35:57;;;;;;;11.30;8.40;;;;;;;6.00;100.00;97413.41;10290153;28;20689;-61
2022/04/15 17:40:58;;;;;;;12.53;8.17;;;;;;;6.05;100.00;97416.50;10289537;28;20199;-61
2022/04/15 17:45:59;;;;;;;10.57;8.27;;;;;;;6.06;100.00;97417.31;10289162;28;20202;-58
2022/04/15 17:51:00;;;;;;;11.60;9.03;;;;;;;6.09;100.00;97430.09;10289101;28;20222;-60
2022/04/15 17:56:00;;;;;;;13.90;9.07;;;;;;;6.11;100.00;97427.38;10288111;28;20233;-57
2022/04/15 18:01:01;;;;;;;11.07;8.70;;;;;;;6.04;100.00;97435.63;10277613;28;20221;-54
2022/04/15 18:06:01;;;;;;;14.13;10.03;;;;;;;5.96;100.00;97437.13;10269357;28;20214;-60
2022/04/15 18:11:02;;;;;;;13.80;9.77;;;;;;;6.00;100.00;97441.16;10267741;28;20191;-60
2022/04/15 18:16:02;;;;;;;11.93;9.20;;;;;;;6.00;100.00;97447.22;10270596;28;20364;-57
2022/04/15 18:21:02;;;;;;;13.47;10.53;;;;;;;6.00;100.00;97449.81;10267744;28;20190;-59
2022/04/15 18:26:05;;;;;;;10.37;9.13;;;;;;;6.01;100.00;97448.03;10285081;28;20288;-59
2022/04/15 18:31:06;;;;;;;67.50;34.27;;;;;;;5.98;100.00;97450.84;10296035;28;20213;-60
2022/04/15 18:36:06;;;;;;;12.40;9.27;;;;;;;6.01;100.00;97461.88;10295991;28;20245;-56
2022/04/15 18:41:07;;;;;;;10.17;8.77;;;;;;;6.17;100.00;97461.63;10295853;28;20202;-57
2022/04/15 18:46:07;;;;;;;9.97;8.30;;;;;;;6.12;100.00;97470.69;10295751;28;20210;-61
2022/04/15 18:56:26;;;;;;;12.17;9.23;;;;;;;6.07;100.00;97473.59;10295244;28;20231;-61
2022/04/15 19:01:27;;;;;;;12.93;9.17;;;;;;;6.18;100.00;97478.88;10295061;28;20191;-61
2022/04/15 19:06:27;;;;;;;12.50;9.40;;;;;;;6.18;100.00;97480.66;10295007;28;20210;-62
2022/04/15 19:11:28;;;;;;;11.77;10.17;;;;;;;6.16;100.00;97485.97;10294756;28;20297;-60
2022/04/15 19:16:28;;;;;;;15.07;9.57;;;;;;;6.08;100.00;97483.09;10293857;28;20249;-62
2022/04/15 19:21:28;;;;;;;11.83;8.60;;;;;;;6.06;100.00;97485.78;10294382;28;20198;-62
2022/04/15 19:26:29;;;;;;;12.50;8.37;;;;;;;6.05;100.00;97486.72;10294205;28;20338;-62
2022/04/15 19:31:29;;;;;;;13.77;9.77;;;;;;;5.95;100.00;97501.28;10294208;28;20202;-62
2022/04/15 19:36:30;;;;;;;12.50;8.50;;;;;;;6.02;100.00;97505.16;10293574;28;20226;-62
2022/04/15 19:41:31;;;;;;;14.33;10.33;;;;;;;5.95;100.00;97506.47;10292346;28;20202;-62
2022/04/15 19:46:31;;;;;;;20.07;12.77;;;;;;;5.90;100.00;97517.22;10288700;28;20249;-61
2022/04/15 19:51:32;;;;;;;20.70;13.50;;;;;;;5.92;100.00;97526.69;10293763;28;20745;-58
2022/04/15 20:01:51;;;;;;;24.23;15.80;;;;;;;5.83;100.00;97515.13;10293266;28;20199;-60
2022/04/15 20:06:51;;;;;;;22.83;14.83;;;;;;;5.74;100.00;97523.59;10267494;28;20203;-62
2022/04/15 20:11:53;;;;;;;18.57;11.60;;;;;;;5.62;100.00;97535.66;10271320;28;21094;-59
2022/04/15 20:16:54;;;;;;;16.63;11.40;;;;;;;5.45;100.00;97532.44;10253073;28;20311;-62
2022/04/15 20:21:54;;;;;;;15.23;10.00;;;;;;;5.42;100.00;97537.00;10252351;28;20199;-60
2022/04/15 20:26:54;;;;;;;18.23;11.03;;;;;;;5.37;100.00;97532.13;10251996;28;20320;-62
2022/04/15 20:31:55;;;;;;;18.50;12.47;;;;;;;5.29;100.00;97535.25;10252046;28;20191;-59
2022/04/15 20:36:55;;;;;;;26.80;16.10;;;;;;;5.24;100.00;97539.91;10269199;28;20633;-61
2022/04/15 20:41:55;;;;;;;21.33;15.33;;;;;;;5.20;100.00;97548.84;10276121;28;20575;-60
2022/04/15 20:46:56;;;;;;;27.27;17.67;;;;;;;4.96;100.00;97562.53;10268740;28;20218;-62
2022/04/15 20:51:56;;;;;;;28.47;19.43;;;;;;;4.76;100.00;97566.41;10253654;28;20199;-62
2022/04/15 20:56:57;;;;;;;33.37;19.00;;;;;;;4.66;100.00;97565.34;10251251;28;20242;-60
2022/04/15 21:01:57;;;;;;;32.20;19.97;;;;;;;4.66;100.00;97572.31;10251300;28;20750;-62
2022/04/15 21:06:57;;;;;;;30.03;20.63;;;;;;;4.54;100.00;97573.91;10250890;28;20218;-61
2022/04/15 21:11:58;;;;;;;34.17;20.77;;;;;;;4.47;100.00;97583.81;10250360;28;20195;-62
2022/04/15 21:16:59;;;;;;;43.10;25.10;;;;;;;4.44;100.00;97590.06;10250386;28;20245;-58
2022/04/15 21:21:59;;;;;;;47.70;26.00;;;;;;;4.36;100.00;97597.47;10250725;28;20203;-57
2022/04/15 21:26:59;;;;;;;79.70;29.07;;;;;;;4.31;100.00;97602.13;10250173;28;20298;-61
2022/04/15 21:32:00;;;;;;;79.93;30.73;;;;;;;4.20;100.00;97612.34;10250689;28;20186;-59
2022/04/15 21:37:01;;;;;;;58.40;29.97;;;;;;;4.20;100.00;97607.16;10249591;28;20226;-61
2022/04/15 21:42:02;;;;;;;78.20;31.00;;;;;;;4.19;100.00;97601.09;10250431;28;20662;-59
2022/04/15 21:47:04;;;;;;;67.90;31.67;;;;;;;4.04;100.00;97615.00;10249676;28;20741;-60
2022/04/15 21:57:24;;;;;;;146.90;35.13;;;;;;;4.05;100.00;97620.09;10247583;28;20230;-61
2022/04/15 22:02:25;;;;;;;206.70;38.20;;;;;;;4.00;100.00;97621.34;10249355;28;20721;-59
2022/04/15 22:07:25;;;;;;;97.00;33.13;;;;;;;4.16;100.00;97632.41;10248887;28;20341;-61
2022/04/15 22:12:25;;;;;;;80.10;31.23;;;;;;;4.02;100.00;97637.63;10265590;28;20202;-61
2022/04/15 22:17:26;;;;;;;69.43;30.00;;;;;;;3.97;100.00;97634.47;10264663;28;20238;-58
2022/04/15 22:22:27;;;;;;;62.70;29.93;;;;;;;3.95;100.00;97644.09;10266852;28;20277;-60
2022/04/15 22:27:27;;;;;;;76.07;30.60;;;;;;;3.90;100.00;97642.59;10266263;28;20211;-58
2022/04/15 22:32:28;;;;;;;77.80;29.77;;;;;;;3.81;100.00;97656.09;10255201;28;20195;-61
2022/04/15 22:37:28;;;;;;;64.07;27.17;;;;;;;3.86;100.00;97651.50;10244839;28;20724;-60
2022/04/15 22:42:29;;;;;;;71.87;30.90;;;;;;;3.89;100.00;97650.47;10248397;28;20766;-58
2022/04/15 22:47:46;;;;;;;70.27;30.30;;;;;;;3.85;100.00;97639.47;10247461;28;20215;-59
2022/04/15 22:52:46;;;;;;;81.87;32.47;;;;;;;3.79;100.00;97647.59;10245275;28;20206;-58
2022/04/15 22:57:47;;;;;;;79.10;30.57;;;;;;;3.69;100.00;97654.25;10247726;28;20271;-61
2022/04/15 23:02:47;;;;;;;72.87;29.20;;;;;;;3.60;100.00;97647.88;10248126;28;20342;-55
2022/04/15 23:07:47;;;;;;;78.07;32.30;;;;;;;3.48;100.00;97649.41;10248615;28;20258;-61
2022/04/15 23:12:48;;;;;;;67.57;28.70;;;;;;;3.51;100.00;97646.63;10254444;28;20564;-57
2022/04/15 23:17:49;;;;;;;73.37;29.43;;;;;;;3.50;100.00;97644.97;10254602;28;20235;-55
2022/04/15 23:22:49;;;;;;;78.43;30.10;;;;;;;3.46;100.00;97637.44;10254785;28;20206;-57
2022/04/15 23:27:49;;;;;;;66.50;28.07;;;;;;;3.54;100.00;97630.09;10254495;28;20274;-55
2022/04/15 23:32:53;;;;;;;65.60;27.00;;;;;;;3.47;100.00;97634.78;10254389;28;20225;-55
2022/04/15 23:37:53;;;;;;;65.40;25.90;;;;;;;3.46;100.00;97637.44;10253883;28;20259;-58